Time;durP1;ratioP1;P1;durP2;ratioP2;P2;SDS_P1;SDS_P2;PMS_P1;PMS_P2;Temp;Humidity;BMP_temperature;BMP_pressure;BME280_temperature;BME280_humidity;BME280_pressure;Samples;Min_cycle;Max_cycle;Signal;HPM_P1;HPM_P2
2021/07/01 00:00:46;;;;;;;30.45;11.80;;;;;;;14.16;100.00;101363.63;3593051;40;20036;-63
2021/07/01 00:03:13;;;;;;;25.13;11.10;;;;;;;14.02;100.00;101364.09;3594042;40;20320;-62
2021/07/01 00:05:40;;;;;;;26.33;11.85;;;;;;;13.98;100.00;101360.81;3595587;39;20052;-63
2021/07/01 00:08:07;;;;;;;28.80;11.20;;;;;;;14.00;100.00;101361.53;3595822;40;20068;-62
2021/07/01 00:10:33;;;;;;;31.33;11.90;;;;;;;13.94;100.00;101362.13;3597077;40;20426;-62
2021/07/01 00:13:00;;;;;;;27.27;12.43;;;;;;;13.82;100.00;101363.25;3595315;40;20071;-62
2021/07/01 00:15:28;;;;;;;31.23;12.38;;;;;;;13.83;100.00;101360.41;3595573;40;20044;-62
2021/07/01 00:17:56;;;;;;;31.10;11.77;;;;;;;13.88;100.00;101356.41;3597109;40;20060;-61
2021/07/01 00:20:24;;;;;;;32.80;13.50;;;;;;;13.88;100.00;101357.25;3595838;40;20282;-62
2021/07/01 00:22:51;;;;;;;31.13;12.27;;;;;;;13.88;100.00;101362.66;3595240;39;20032;-62
2021/07/01 00:25:19;;;;;;;29.80;11.93;;;;;;;13.94;100.00;101353.13;3583772;40;20059;-62
2021/07/01 00:27:45;;;;;;;25.00;11.70;;;;;;;13.90;100.00;101355.28;3592887;40;20080;-62
2021/07/01 00:33:40;;;;;;;31.75;13.55;;;;;;;13.87;100.00;101352.88;3569083;40;20483;-62
2021/07/01 00:36:07;;;;;;;35.25;12.63;;;;;;;13.75;100.00;101354.88;3568247;40;20031;-62
2021/07/01 00:38:33;;;;;;;30.70;13.45;;;;;;;13.81;100.00;101351.59;3567696;40;20034;-62
2021/07/01 00:41:00;;;;;;;31.33;12.98;;;;;;;13.83;100.00;101349.59;3567437;40;20273;-61
2021/07/01 00:43:26;;;;;;;35.17;13.98;;;;;;;13.74;100.00;101349.63;3566916;40;20319;-62
2021/07/01 00:45:53;;;;;;;31.58;12.27;;;;;;;13.79;100.00;101342.75;3563903;40;20063;-61
2021/07/01 00:48:19;;;;;;;34.75;12.82;;;;;;;13.73;100.00;101343.34;3560653;40;20234;-62
2021/07/01 00:50:53;;;;;;;30.88;12.45;;;;;;;13.80;100.00;101349.03;3555648;40;20045;-62
2021/07/01 00:53:19;;;;;;;37.80;14.82;;;;;;;13.90;100.00;101346.28;3556638;40;20062;-60
2021/07/01 00:55:46;;;;;;;26.52;13.55;;;;;;;13.92;100.00;101344.31;3558948;40;20042;-61
2021/07/01 00:58:13;;;;;;;30.10;12.98;;;;;;;14.01;100.00;101349.69;3557961;40;20632;-63
2021/07/01 01:00:49;;;;;;;26.80;12.88;;;;;;;13.91;100.00;101340.72;3559522;40;20281;-62
2021/07/01 01:03:16;;;;;;;32.88;12.73;;;;;;;13.97;100.00;101345.59;3567444;40;20036;-62
2021/07/01 01:05:42;;;;;;;28.15;13.20;;;;;;;14.06;100.00;101348.41;3567034;40;20385;-62
2021/07/01 01:08:10;;;;;;;35.63;14.68;;;;;;;13.93;100.00;101338.75;3566505;40;20069;-62
2021/07/01 01:10:37;;;;;;;50.20;13.32;;;;;;;13.90;100.00;101347.16;3567558;40;20061;-62
2021/07/01 01:13:04;;;;;;;35.83;13.98;;;;;;;13.91;100.00;101340.72;3568067;40;20034;-61
2021/07/01 01:15:31;;;;;;;36.30;13.68;;;;;;;13.91;100.00;101339.88;3566438;40;20033;-62
2021/07/01 01:17:57;;;;;;;33.03;13.32;;;;;;;13.83;100.00;101343.34;3563887;40;20435;-62
2021/07/01 01:20:24;;;;;;;31.08;13.45;;;;;;;13.94;100.00;101345.88;3558640;40;20061;-61
2021/07/01 01:22:52;;;;;;;28.10;13.18;;;;;;;13.91;100.00;101345.31;3560776;40;20046;-62
2021/07/01 01:25:18;;;;;;;32.20;13.50;;;;;;;13.87;100.00;101339.34;3566881;40;20036;-62
2021/07/01 01:27:45;;;;;;;33.50;14.00;;;;;;;13.83;100.00;101337.91;3567356;40;20074;-62
2021/07/01 01:30:12;;;;;;;34.10;13.60;;;;;;;13.76;100.00;101337.63;3567978;40;20041;-62
2021/07/01 01:32:39;;;;;;;30.98;13.65;;;;;;;13.76;100.00;101336.78;3555953;40;20060;-61
2021/07/01 01:35:07;;;;;;;38.63;13.90;;;;;;;13.80;100.00;101333.66;3555326;40;20041;-62
2021/07/01 01:37:33;;;;;;;36.45;14.05;;;;;;;13.75;100.00;101335.94;3558244;40;20037;-61
2021/07/01 01:40:01;;;;;;;30.77;12.95;;;;;;;13.77;100.00;101330.41;3558195;40;20040;-62
2021/07/01 01:42:27;;;;;;;32.97;13.93;;;;;;;13.77;100.00;101333.09;3555628;40;20075;-62
2021/07/01 01:44:54;;;;;;;33.65;13.80;;;;;;;13.74;100.00;101334.22;3561359;40;20073;-63
2021/07/01 01:47:21;;;;;;;39.22;13.75;;;;;;;13.73;100.00;101332.50;3561339;40;20383;-62
2021/07/01 01:49:50;;;;;;;34.80;13.15;;;;;;;13.71;100.00;101329.13;3555924;40;20022;-62
2021/07/01 01:52:17;;;;;;;32.10;13.83;;;;;;;13.71;100.00;101339.09;3556426;40;20074;-62
2021/07/01 01:54:44;;;;;;;36.08;13.45;;;;;;;13.73;100.00;101337.09;3559404;40;20385;-62
2021/07/01 01:57:12;;;;;;;35.17;13.50;;;;;;;13.77;100.00;101333.09;3566925;40;20319;-61
2021/07/01 01:59:38;;;;;;;40.10;14.93;;;;;;;13.73;100.00;101327.09;3566407;40;20038;-63
2021/07/01 02:02:05;;;;;;;35.35;12.73;;;;;;;13.75;100.00;101330.53;3566134;40;20299;-61
2021/07/01 02:04:32;;;;;;;42.00;14.23;;;;;;;13.73;100.00;101327.09;3566884;40;20041;-62
2021/07/01 02:06:58;;;;;;;38.83;13.10;;;;;;;13.79;100.00;101333.78;3565881;40;20032;-62
2021/07/01 02:09:24;;;;;;;31.42;14.05;;;;;;;13.69;100.00;101330.25;3565296;40;20070;-62
2021/07/01 02:12:17;;;;;;;28.80;13.05;;;;;;;13.74;100.00;101328.81;3652461;22;20054;-62
2021/07/01 02:14:44;;;;;;;35.85;12.60;;;;;;;13.77;100.00;101338.50;3591071;40;20052;-63
2021/07/01 02:22:10;;;;;;;35.05;13.75;;;;;;;13.67;100.00;101328.53;3629440;23;20482;-62
2021/07/01 02:24:36;;;;;;;35.40;13.43;;;;;;;13.74;100.00;101330.69;3611725;39;20123;-62
2021/07/01 02:27:03;;;;;;;36.08;14.77;;;;;;;13.75;100.00;101335.06;3609085;39;20039;-62
2021/07/01 02:29:31;;;;;;;39.42;14.93;;;;;;;13.64;100.00;101339.66;3608611;39;20066;-61
2021/07/01 02:31:57;;;;;;;32.10;13.02;;;;;;;13.70;100.00;101337.38;3612030;39;20031;-62
2021/07/01 02:34:23;;;;;;;34.10;12.10;;;;;;;13.69;100.00;101331.09;3613970;39;20043;-62
2021/07/01 02:36:50;;;;;;;28.10;12.52;;;;;;;13.77;100.00;101341.22;3614230;39;20037;-61
2021/07/01 02:39:16;;;;;;;32.55;12.43;;;;;;;13.84;100.00;101342.34;3611854;39;20046;-62
2021/07/01 02:41:43;;;;;;;32.70;11.95;;;;;;;13.86;100.00;101340.34;3614840;39;20027;-62
2021/07/01 02:44:09;;;;;;;25.95;11.48;;;;;;;13.95;100.00;101339.44;3613208;39;20031;-62
2021/07/01 02:46:37;;;;;;;24.85;12.35;;;;;;;13.92;100.00;101336.19;3611559;39;20034;-61
2021/07/01 02:49:04;;;;;;;30.08;12.80;;;;;;;13.93;100.00;101336.03;3612869;39;20035;-61
2021/07/01 02:51:30;;;;;;;33.00;13.38;;;;;;;13.89;100.00;101331.91;3614949;39;20063;-62
2021/07/01 02:53:57;;;;;;;26.98;12.40;;;;;;;13.91;100.00;101335.31;3612739;39;20067;-62
2021/07/01 02:56:23;;;;;;;31.70;13.05;;;;;;;13.90;100.00;101339.03;3615656;39;20059;-62
2021/07/01 02:58:50;;;;;;;33.38;13.38;;;;;;;13.80;100.00;101338.22;3614781;39;20359;-62
2021/07/01 03:01:17;;;;;;;36.40;13.32;;;;;;;13.81;100.00;101334.53;3613072;39;20367;-61
2021/07/01 03:03:44;;;;;;;33.35;13.25;;;;;;;13.87;100.00;101330.34;3616848;39;20301;-62
2021/07/01 03:06:11;;;;;;;29.55;12.82;;;;;;;13.93;100.00;101332.50;3611472;39;20301;-62
2021/07/01 03:08:37;;;;;;;28.17;12.23;;;;;;;13.87;100.00;101333.94;3614932;39;20055;-62
2021/07/01 03:11:04;;;;;;;27.98;12.23;;;;;;;13.86;100.00;101325.97;3613413;39;20321;-62
2021/07/01 03:13:30;;;;;;;29.02;12.27;;;;;;;13.89;100.00;101331.06;3611905;39;20375;-62
2021/07/01 03:15:57;;;;;;;30.80;12.15;;;;;;;13.84;100.00;101331.53;3612114;39;20313;-62
2021/07/01 03:18:23;;;;;;;28.27;12.77;;;;;;;13.90;100.00;101327.34;3614944;39;20054;-63
2021/07/01 03:20:51;;;;;;;31.02;12.63;;;;;;;13.82;100.00;101333.50;3612075;39;20035;-62
2021/07/01 03:23:17;;;;;;;31.65;13.95;;;;;;;13.77;100.00;101330.41;3615834;39;20053;-62
2021/07/01 03:25:43;;;;;;;31.00;12.32;;;;;;;13.80;100.00;101330.09;3613438;39;20061;-62
2021/07/01 03:28:10;;;;;;;38.05;11.80;;;;;;;13.79;100.00;101326.53;3615758;39;20321;-63
2021/07/01 03:30:36;;;;;;;30.08;12.77;;;;;;;13.85;100.00;101330.50;3611462;39;20378;-62
2021/07/01 03:33:03;;;;;;;34.47;12.40;;;;;;;13.84;100.00;101328.81;3612947;39;20026;-62
2021/07/01 03:35:29;;;;;;;30.27;12.10;;;;;;;13.85;100.00;101319.69;3609445;39;20035;-62
2021/07/01 03:37:57;;;;;;;38.47;11.90;;;;;;;13.98;100.00;101333.75;3613166;39;20308;-62
2021/07/01 03:40:23;;;;;;;35.35;13.07;;;;;;;13.98;100.00;101330.19;3610056;39;20054;-62
2021/07/01 03:42:50;;;;;;;28.67;11.27;;;;;;;13.89;100.00;101331.91;3609707;39;20044;-61
2021/07/01 03:45:16;;;;;;;26.50;11.20;;;;;;;13.89;100.00;101329.22;3609866;39;20031;-63
2021/07/01 03:47:43;;;;;;;29.85;11.45;;;;;;;13.89;100.00;101331.91;3614263;39;20037;-63
2021/07/01 03:50:10;;;;;;;28.27;11.85;;;;;;;13.84;100.00;101323.41;3614069;39;20077;-61
2021/07/01 03:52:36;;;;;;;29.48;11.32;;;;;;;13.84;100.00;101334.22;3614528;39;20076;-62
2021/07/01 03:55:05;;;;;;;33.08;11.80;;;;;;;13.86;100.00;101336.78;3610971;39;20028;-61
2021/07/01 03:57:32;;;;;;;26.60;10.85;;;;;;;13.89;100.00;101348.16;3615042;39;20043;-62
2021/07/01 03:59:59;;;;;;;27.55;11.30;;;;;;;13.90;100.00;101338.16;3615373;39;20035;-62
2021/07/01 04:02:26;;;;;;;24.55;10.95;;;;;;;13.94;100.00;101340.47;3612738;39;20384;-61
2021/07/01 04:04:52;;;;;;;33.95;12.55;;;;;;;13.95;100.00;101342.16;3614884;39;20043;-63
2021/07/01 04:07:19;;;;;;;24.30;10.93;;;;;;;13.97;100.00;101345.59;3610847;39;20067;-62
2021/07/01 04:10:11;;;;;;;26.63;11.43;;;;;;;14.07;100.00;101339.28;3637637;22;20052;-61
2021/07/01 04:12:38;;;;;;;32.22;10.93;;;;;;;14.09;100.00;101337.25;3567832;40;20351;-62
2021/07/01 04:15:06;;;;;;;26.50;12.25;;;;;;;14.02;100.00;101337.88;3568074;40;20090;-62
2021/07/01 04:17:33;;;;;;;26.17;11.93;;;;;;;14.04;100.00;101336.88;3571425;40;20041;-61
2021/07/01 04:19:59;;;;;;;26.27;11.32;;;;;;;13.99;100.00;101342.72;3577145;40;20033;-61
2021/07/01 04:22:26;;;;;;;24.00;10.82;;;;;;;14.05;100.00;101335.88;3571904;40;20064;-62
2021/07/01 04:24:53;;;;;;;27.42;11.40;;;;;;;14.04;100.00;101335.00;3571554;40;20066;-63
2021/07/01 04:27:21;;;;;;;29.48;11.30;;;;;;;14.07;100.00;101333.88;3572369;40;20295;-62
2021/07/01 04:29:48;;;;;;;26.17;11.45;;;;;;;14.14;100.00;101333.13;3568227;40;20036;-62
2021/07/01 04:32:14;;;;;;;29.30;11.88;;;;;;;14.17;100.00;101330.13;3572748;40;20138;-61
2021/07/01 04:34:40;;;;;;;28.67;13.00;;;;;;;14.15;100.00;101336.69;3573033;40;20029;-61
2021/07/01 04:37:07;;;;;;;28.13;11.98;;;;;;;14.18;100.00;101331.84;3569640;40;20028;-62
2021/07/01 04:39:33;;;;;;;27.38;12.45;;;;;;;14.19;100.00;101340.78;3576390;40;20040;-62
2021/07/01 04:42:01;;;;;;;22.40;11.27;;;;;;;14.15;100.00;101347.53;3570663;40;20069;-62
2021/07/01 04:44:28;;;;;;;30.02;12.35;;;;;;;14.13;100.00;101344.09;3572772;40;20056;-62
2021/07/01 04:46:55;;;;;;;24.48;11.90;;;;;;;14.08;100.00;101343.69;3573344;40;20040;-61
2021/07/01 04:49:21;;;;;;;30.70;13.38;;;;;;;14.06;100.00;101351.09;3574434;40;20037;-62
2021/07/01 04:51:48;;;;;;;28.25;12.73;;;;;;;14.07;100.00;101345.53;3565054;40;20072;-61
2021/07/01 04:54:14;;;;;;;26.23;13.15;;;;;;;14.13;100.00;101344.09;3570152;40;20029;-62
2021/07/01 04:56:44;;;;;;;32.63;12.80;;;;;;;14.18;100.00;101341.81;3573774;40;20036;-62
2021/07/01 04:59:11;;;;;;;27.35;13.20;;;;;;;14.21;100.00;101346.94;3572184;40;20049;-61
2021/07/01 05:01:39;;;;;;;26.52;12.45;;;;;;;14.26;100.00;101346.50;3574542;40;20037;-61
2021/07/01 05:04:07;;;;;;;29.75;13.90;;;;;;;14.20;100.00;101346.06;3571991;40;20036;-62
2021/07/01 05:06:34;;;;;;;30.60;12.90;;;;;;;14.27;100.00;101346.34;3571416;40;20080;-62
2021/07/01 05:11:51;;;;;;;29.73;13.32;;;;;;;14.35;100.00;101349.16;3644226;22;20051;-62
2021/07/01 05:14:17;;;;;;;34.08;14.10;;;;;;;14.35;100.00;101338.34;3615120;39;20032;-61
2021/07/01 05:16:45;;;;;;;32.28;13.30;;;;;;;14.31;100.00;101342.34;3617100;39;20037;-61
2021/07/01 05:19:12;;;;;;;31.65;13.73;;;;;;;14.52;100.00;101341.25;3614358;39;20037;-62
2021/07/01 05:21:38;;;;;;;28.63;14.00;;;;;;;14.54;100.00;101341.94;3614364;39;20049;-62
2021/07/01 05:24:05;;;;;;;33.25;14.95;;;;;;;14.52;100.00;101339.38;3615029;39;20028;-62
2021/07/01 05:26:32;;;;;;;36.65;14.77;;;;;;;14.60;100.00;101337.78;3614818;39;20386;-62
2021/07/01 05:28:59;;;;;;;35.40;14.02;;;;;;;14.68;100.00;101333.34;3614485;39;20035;-62
2021/07/01 05:31:25;;;;;;;36.83;15.00;;;;;;;14.75;100.00;101339.00;3617181;39;20058;-62
2021/07/01 05:33:53;;;;;;;32.55;14.57;;;;;;;14.73;100.00;101345.59;3616378;39;20063;-61
2021/07/01 05:36:19;;;;;;;33.47;15.02;;;;;;;14.79;100.00;101336.84;3610404;39;20055;-62
2021/07/01 05:38:46;;;;;;;30.80;14.05;;;;;;;14.89;100.00;101340.34;3616249;39;20064;-62
2021/07/01 05:41:12;;;;;;;36.45;14.38;;;;;;;14.92;100.00;101337.31;3613332;39;20301;-62
2021/07/01 05:43:39;;;;;;;34.65;16.38;;;;;;;14.83;100.00;101346.38;3610757;39;20156;-62
2021/07/01 05:46:05;;;;;;;42.63;17.25;;;;;;;14.71;100.00;101334.91;3610931;39;20051;-61
2021/07/01 05:48:31;;;;;;;34.83;14.63;;;;;;;14.71;100.00;101343.88;3617090;39;20297;-62
2021/07/01 05:51:03;;;;;;;34.63;15.85;;;;;;;14.80;100.00;101339.41;3613948;39;20035;-62
2021/07/01 05:53:32;;;;;;;37.30;14.68;;;;;;;14.70;100.00;101339.44;3613039;39;20366;-62
2021/07/01 05:55:59;;;;;;;38.47;15.40;;;;;;;14.89;100.00;101337.63;3614418;39;20110;-62
2021/07/01 05:58:26;;;;;;;33.85;14.95;;;;;;;14.99;100.00;101333.00;3615389;39;20117;-62
2021/07/01 06:00:53;;;;;;;41.38;16.30;;;;;;;15.11;100.00;101333.63;3610629;39;20035;-63
2021/07/01 06:03:19;;;;;;;40.55;16.75;;;;;;;15.17;100.00;101337.59;3614481;39;20047;-61
2021/07/01 06:05:52;;;;;;;37.60;15.77;;;;;;;15.06;100.00;101336.81;3610535;39;20042;-62
2021/07/01 06:08:21;;;;;;;36.05;15.35;;;;;;;15.02;100.00;101338.13;3615781;39;20179;-61
2021/07/01 06:10:49;;;;;;;39.35;17.17;;;;;;;14.96;100.00;101344.16;3611962;39;20039;-62
2021/07/01 06:13:22;;;;;;;37.03;16.60;;;;;;;14.98;100.00;101344.00;3609776;39;20055;-61
2021/07/01 06:15:49;;;;;;;40.72;16.50;;;;;;;14.94;100.00;101346.16;3612484;39;20386;-62
2021/07/01 06:18:15;;;;;;;43.97;17.17;;;;;;;14.96;100.00;101346.00;3609507;39;20082;-62
2021/07/01 06:20:42;;;;;;;35.35;16.13;;;;;;;15.00;100.00;101345.56;3609613;39;20039;-62
2021/07/01 06:23:08;;;;;;;41.75;17.00;;;;;;;14.93;100.00;101341.75;3610511;39;20396;-61
2021/07/01 06:25:36;;;;;;;48.95;17.33;;;;;;;14.97;100.00;101345.88;3608258;39;20446;-62
2021/07/01 06:28:03;;;;;;;36.50;17.02;;;;;;;15.11;100.00;101332.78;3607152;39;20052;-63
2021/07/01 06:30:31;;;;;;;40.00;16.73;;;;;;;15.13;100.00;101345.16;3602362;39;20047;-62
2021/07/01 06:32:58;;;;;;;40.45;16.63;;;;;;;15.17;100.00;101345.72;3612785;39;20358;-62
2021/07/01 06:35:26;;;;;;;39.95;17.02;;;;;;;15.20;100.00;101342.69;3610434;39;20029;-62
2021/07/01 06:37:56;;;;;;;45.08;16.23;;;;;;;15.02;100.00;101342.69;3659700;22;20041;-62
2021/07/01 06:40:24;;;;;;;37.05;16.50;;;;;;;15.00;100.00;101337.44;3610451;39;20066;-62
2021/07/01 06:42:59;;;;;;;37.03;16.52;;;;;;;14.95;100.00;101337.03;3610017;39;20043;-62
2021/07/01 06:45:26;;;;;;;45.35;16.52;;;;;;;14.95;100.00;101342.44;3610933;39;20293;-62
2021/07/01 06:47:55;;;;;;;40.95;17.45;;;;;;;14.94;100.00;101342.59;3610260;39;20035;-62
2021/07/01 06:50:26;;;;;;;43.75;16.50;;;;;;;14.98;100.00;101338.59;3609167;39;20454;-62
2021/07/01 06:52:54;;;;;;;36.25;15.90;;;;;;;15.11;100.00;101338.22;3611874;39;20031;-63
2021/07/01 06:55:21;;;;;;;49.20;17.55;;;;;;;15.07;100.00;101341.22;3611793;39;20422;-63
2021/07/01 06:57:47;;;;;;;51.03;19.02;;;;;;;15.04;100.00;101333.38;3609981;39;20048;-63
2021/07/01 07:00:17;;;;;;;45.33;17.17;;;;;;;15.11;100.00;101343.63;3610877;39;20028;-62
2021/07/01 07:02:44;;;;;;;44.35;18.23;;;;;;;15.21;100.00;101341.69;3612990;39;20035;-63
2021/07/01 07:05:12;;;;;;;45.70;18.17;;;;;;;15.29;100.00;101338.22;3612016;39;20051;-63
2021/07/01 07:07:40;;;;;;;34.70;16.37;;;;;;;15.19;100.00;101338.28;3613890;39;20035;-62
2021/07/01 07:10:07;;;;;;;48.15;16.77;;;;;;;15.16;100.00;101341.28;3613876;39;20064;-62
2021/07/01 07:12:38;;;;;;;51.85;17.92;;;;;;;15.00;100.00;101348.28;3614498;39;20064;-63
2021/07/01 07:15:06;;;;;;;41.50;16.70;;;;;;;15.07;100.00;101349.38;3609762;39;20106;-62
2021/07/01 07:17:37;;;;;;;38.67;16.65;;;;;;;15.16;100.00;101352.16;3612874;39;20057;-62
2021/07/01 07:20:05;;;;;;;44.47;16.38;;;;;;;15.16;100.00;101352.16;3611051;39;20032;-63
2021/07/01 07:25:01;;;;;;;44.65;15.27;;;;;;;15.22;100.00;101351.53;3608063;22;20262;-63
2021/07/01 07:27:31;;;;;;;38.45;14.75;;;;;;;15.27;100.00;101351.06;3601460;39;20029;-62
2021/07/01 07:29:58;;;;;;;41.30;15.95;;;;;;;15.22;100.00;101352.38;3601370;39;20029;-63
2021/07/01 07:32:28;;;;;;;39.63;15.77;;;;;;;15.25;100.00;101356.63;3603505;39;20054;-62
2021/07/01 07:34:56;;;;;;;38.33;15.88;;;;;;;15.25;100.00;101353.91;3599098;39;20035;-63
2021/07/01 07:37:23;;;;;;;43.33;16.95;;;;;;;15.28;100.00;101356.31;3599085;39;20042;-62
2021/07/01 07:39:50;;;;;;;37.05;15.60;;;;;;;15.32;100.00;101355.00;3601315;39;20433;-63
2021/07/01 07:42:18;;;;;;;32.50;14.57;;;;;;;15.21;100.00;101355.25;3600321;39;20032;-62
2021/07/01 07:44:45;;;;;;;38.22;15.38;;;;;;;15.39;100.00;101352.53;3600941;39;20036;-62
2021/07/01 07:47:13;;;;;;;48.58;15.23;;;;;;;15.38;100.00;101350.81;3601132;39;20036;-62
2021/07/01 07:49:40;;;;;;;37.50;15.35;;;;;;;15.29;100.00;101359.91;3605227;39;20068;-63
2021/07/01 07:52:11;;;;;;;39.28;16.58;;;;;;;15.47;100.00;101347.16;3600387;39;20076;-63
2021/07/01 07:54:44;;;;;;;43.42;15.30;;;;;;;15.42;100.00;101344.94;3606706;39;20031;-62
2021/07/01 07:57:11;;;;;;;41.33;14.15;;;;;;;15.37;100.00;101344.56;3596030;39;20054;-63
2021/07/01 07:59:39;;;;;;;48.88;15.70;;;;;;;15.55;100.00;101352.69;3603105;39;20028;-63
2021/07/01 08:02:07;;;;;;;34.03;13.98;;;;;;;15.54;100.00;101358.25;3605689;39;20070;-63
2021/07/01 08:04:35;;;;;;;44.63;15.93;;;;;;;15.55;100.00;101357.25;3601331;39;20038;-63
2021/07/01 08:07:04;;;;;;;39.03;14.30;;;;;;;15.52;100.00;101360.28;3606430;39;20128;-63
2021/07/01 08:09:35;;;;;;;33.75;14.35;;;;;;;15.57;100.00;101350.66;3604178;39;20043;-63
2021/07/01 08:12:02;;;;;;;39.42;15.02;;;;;;;15.60;100.00;101357.63;3604818;39;20043;-63
2021/07/01 08:14:29;;;;;;;34.63;13.98;;;;;;;15.62;100.00;101352.03;3605506;39;20034;-62
2021/07/01 08:16:55;;;;;;;31.60;14.40;;;;;;;15.67;100.00;101361.41;3605101;39;20108;-62
2021/07/01 08:19:22;;;;;;;39.55;14.95;;;;;;;15.74;100.00;101354.34;3606241;39;20056;-62
2021/07/01 08:21:48;;;;;;;39.47;13.85;;;;;;;15.91;100.00;101357.22;3605330;39;20031;-62
2021/07/01 08:24:15;;;;;;;30.75;12.70;;;;;;;15.85;100.00;101349.72;3605302;39;20313;-62
2021/07/01 08:26:44;;;;;;;43.75;14.38;;;;;;;16.06;100.00;101361.06;3607363;39;20031;-63
2021/07/01 08:29:11;;;;;;;37.38;14.25;;;;;;;16.08;100.00;101364.47;3601631;39;20280;-62
2021/07/01 08:31:42;;;;;;;32.70;12.80;;;;;;;16.20;100.00;101364.19;3605599;39;20036;-62
2021/07/01 08:34:09;;;;;;;43.08;13.55;;;;;;;16.23;100.00;101367.44;3603684;39;20060;-63
2021/07/01 08:36:36;;;;;;;34.70;12.68;;;;;;;16.11;100.00;101363.28;3599376;39;20040;-63
2021/07/01 08:39:06;;;;;;;36.78;13.38;;;;;;;16.07;100.00;101365.47;3599614;39;20381;-63
2021/07/01 08:41:33;;;;;;;34.50;12.63;;;;;;;16.06;100.00;101365.63;3597608;39;20032;-63
2021/07/01 08:44:02;;;;;;;29.20;12.27;;;;;;;16.09;100.00;101371.59;3599741;39;20440;-63
2021/07/01 08:46:30;;;;;;;39.33;12.02;;;;;;;16.16;100.00;101365.53;3600106;39;20059;-62
2021/07/01 08:49:03;;;;;;;40.42;12.10;;;;;;;16.18;100.00;101363.50;3600490;39;20066;-63
2021/07/01 08:51:33;;;;;;;28.98;11.95;;;;;;;16.10;100.00;101373.28;3599128;39;20036;-62
2021/07/01 08:54:23;;;;;;;30.85;12.65;;;;;;;16.13;100.00;101377.56;3598197;39;20050;-62
2021/07/01 08:56:52;;;;;;;34.13;12.15;;;;;;;16.16;100.00;101377.22;3598580;39;20048;-63
2021/07/01 08:59:23;;;;;;;28.85;11.43;;;;;;;16.21;100.00;101382.19;3600027;39;20035;-61
2021/07/01 09:01:56;;;;;;;33.25;12.13;;;;;;;16.36;100.00;101374.31;3600192;39;20418;-63
2021/07/01 09:04:25;;;;;;;28.52;11.50;;;;;;;16.30;100.00;101378.53;3599240;39;20666;-63
2021/07/01 09:06:58;;;;;;;29.75;10.75;;;;;;;16.28;100.00;101385.97;3600600;39;20163;-62
2021/07/01 09:09:30;;;;;;;27.95;12.38;;;;;;;16.39;100.00;101379.41;3604709;39;20043;-63
2021/07/01 09:12:00;;;;;;;27.77;10.50;;;;;;;16.39;100.00;101393.84;3605335;39;20035;-63
2021/07/01 09:14:30;;;;;;;30.80;11.15;;;;;;;16.43;100.00;101384.38;3605388;39;20453;-63
2021/07/01 09:16:56;;;;;;;24.48;10.57;;;;;;;16.33;100.00;101391.78;3606894;39;20054;-63
2021/07/01 09:19:24;;;;;;;27.85;10.30;;;;;;;16.20;100.00;101384.06;3606480;39;20095;-62
2021/07/01 09:21:51;;;;;;;35.20;11.20;;;;;;;16.22;100.00;101381.16;3608173;39;20040;-62
2021/07/01 09:24:19;;;;;;;29.27;10.70;;;;;;;16.29;100.00;101382.25;3607550;39;20048;-62
2021/07/01 09:26:48;;;;;;;26.40;10.45;;;;;;;16.16;100.00;101387.25;3603808;39;20046;-62
2021/07/01 09:29:15;;;;;;;24.88;10.73;;;;;;;16.11;100.00;101385.88;3606361;39;20024;-63
2021/07/01 09:31:43;;;;;;;25.60;10.40;;;;;;;16.20;100.00;101384.06;3605685;39;20040;-63
2021/07/01 09:34:10;;;;;;;23.10;10.57;;;;;;;16.23;100.00;101386.44;3606409;39;20408;-62
2021/07/01 09:36:37;;;;;;;25.33;10.52;;;;;;;16.20;100.00;101388.66;3607043;39;20362;-62
2021/07/01 09:39:04;;;;;;;27.63;11.65;;;;;;;16.39;100.00;101396.56;3606556;39;20028;-62
2021/07/01 09:41:31;;;;;;;30.73;11.27;;;;;;;16.27;100.00;101393.25;3603888;39;20043;-62
2021/07/01 09:44:00;;;;;;;24.08;10.02;;;;;;;16.35;100.00;101391.63;3603505;39;20087;-62
2021/07/01 09:46:28;;;;;;;26.30;9.82;;;;;;;16.55;100.00;101392.22;3602957;39;20079;-63
2021/07/01 09:49:00;;;;;;;19.00;9.30;;;;;;;16.77;100.00;101396.25;3603759;39;20087;-63
2021/07/01 09:51:28;;;;;;;22.73;10.02;;;;;;;16.92;100.00;101404.66;3618687;22;20063;-63
2021/07/01 09:53:55;;;;;;;19.50;9.23;;;;;;;16.81;100.00;101397.59;3613789;39;20059;-63
2021/07/01 09:56:36;;;;;;;18.80;9.18;;;;;;;16.82;100.00;101400.16;3614469;39;20110;-63
2021/07/01 09:59:04;;;;;;;20.25;9.27;;;;;;;16.81;100.00;101397.59;3612049;39;20032;-62
2021/07/01 10:01:32;;;;;;;20.85;10.15;;;;;;;17.00;100.00;101399.22;3615938;39;20386;-63
2021/07/01 10:04:01;;;;;;;19.80;9.68;;;;;;;16.97;100.00;101405.00;3613254;39;20039;-63
2021/07/01 10:06:28;;;;;;;24.48;9.07;;;;;;;16.84;100.00;101402.69;3613557;39;20053;-63
2021/07/01 10:08:55;;;;;;;27.80;10.23;;;;;;;16.82;100.00;101402.03;3612172;39;20050;-62
2021/07/01 10:11:33;;;;;;;20.30;9.20;;;;;;;16.76;100.00;101411.69;3612217;39;20054;-63
2021/07/01 10:14:00;;;;;;;21.00;9.85;;;;;;;16.85;100.00;101418.00;3615158;39;20038;-63
2021/07/01 10:16:30;;;;;;;23.15;9.73;;;;;;;16.84;100.00;101413.56;3616163;39;20053;-63
2021/07/01 10:18:57;;;;;;;27.10;10.38;;;;;;;16.89;100.00;101415.84;3615444;39;20032;-63
2021/07/01 10:21:28;;;;;;;24.92;9.77;;;;;;;16.97;100.00;101407.72;3612742;39;20050;-63
2021/07/01 10:24:08;;;;;;;23.00;10.20;;;;;;;16.65;100.00;101414.69;3616949;39;20290;-63
2021/07/01 10:26:39;;;;;;;24.33;10.30;;;;;;;16.78;100.00;101420.53;3616100;39;20321;-63
2021/07/01 10:29:06;;;;;;;25.10;9.65;;;;;;;16.62;100.00;101409.56;3615693;39;20382;-63
2021/07/01 10:31:52;;;;;;;28.25;9.80;;;;;;;16.68;100.00;101417.09;3616273;39;20050;-63
2021/07/01 10:34:19;;;;;;;25.20;9.20;;;;;;;16.70;100.00;101406.91;3615246;39;20159;-63
2021/07/01 10:36:47;;;;;;;25.83;9.73;;;;;;;16.74;100.00;101415.56;3610635;39;20118;-63
2021/07/01 10:39:14;;;;;;;23.50;10.70;;;;;;;16.84;100.00;101420.88;3614510;39;20031;-63
2021/07/01 10:41:42;;;;;;;23.60;9.40;;;;;;;16.94;100.00;101418.91;3614147;39;20425;-63
2021/07/01 10:44:22;;;;;;;26.92;10.65;;;;;;;16.91;100.00;101421.97;3616583;39;20415;-63
2021/07/01 10:46:49;;;;;;;32.63;11.30;;;;;;;17.03;100.00;101423.38;3616872;39;20043;-63
2021/07/01 10:49:17;;;;;;;28.70;10.20;;;;;;;16.99;100.00;101422.00;3614396;39;20087;-64
2021/07/01 10:51:55;;;;;;;32.40;10.80;;;;;;;17.07;100.00;101419.31;3614151;39;20059;-63
2021/07/01 10:54:22;;;;;;;24.23;11.02;;;;;;;17.26;100.00;101415.44;3614226;39;20099;-64
2021/07/01 10:56:54;;;;;;;20.95;9.15;;;;;;;17.24;100.00;101413.91;3617745;39;20047;-63
2021/07/01 10:59:21;;;;;;;19.00;9.00;;;;;;;17.35;100.00;101410.88;3615795;39;20128;-64
2021/07/01 11:01:48;;;;;;;27.02;9.00;;;;;;;17.15;100.00;101405.75;3613744;39;20049;-63
2021/07/01 11:07:54;;;;;;;27.65;9.50;;;;;;;17.41;100.00;101404.75;3622181;22;20055;-64
2021/07/01 11:10:33;;;;;;;25.58;9.50;;;;;;;17.50;100.00;101408.34;3604562;39;20075;-64
2021/07/01 11:13:06;;;;;;;26.25;9.95;;;;;;;17.55;100.00;101405.09;3605863;39;20120;-64
2021/07/01 11:15:33;;;;;;;25.40;8.70;;;;;;;17.56;100.00;101410.38;3609048;39;20044;-64
2021/07/01 11:18:08;;;;;;;25.83;8.82;;;;;;;17.45;100.00;101411.56;3606926;39;20047;-64
2021/07/01 11:20:34;;;;;;;25.83;10.48;;;;;;;17.61;100.00;101409.91;3605739;39;20051;-64
2021/07/01 11:23:02;;;;;;;28.00;8.95;;;;;;;17.82;100.00;101410.22;3603751;39;20058;-65